Time,TemperatureF,DewpointF,PressureIn,WindDirection,WindDirectionDegrees,WindSpeedMPH,WindSpeedGustMPH,Humidity,HourlyPrecipIn,Conditions,Clouds,dailyrainin,SoftwareType,DateUTC
2013-04-02 00:01:00,34.5,16.4,29.72,NNW,327,5.9,12.0,47,0.00,n/a,n/a,-99.99,Henriksen +1-Wire,2013-04-02 04:01:00,
2013-04-02 00:02:00,34.5,16.4,29.72,NNW,332,4.6,12.0,47,0.00,n/a,n/a,-99.99,Henriksen +1-Wire,2013-04-02 04:02:00,
2013-04-02 00:07:00,34.4,16.5,29.72,NW,326,6.7,14.4,47,0.00,n/a,n/a,-99.99,Henriksen +1-Wire,2013-04-02 04:07:00,
2013-04-02 00:11:00,34.3,16.5,29.72,NNW,330,4.8,14.4,47,0.00,n/a,n/a,-99.99,Henriksen +1-Wire,2013-04-02 04:11:00,
2013-04-02 00:14:00,34.3,16.5,29.73,NW,326,4.9,10.3,47,0.00,n/a,n/a,-99.99,Henriksen +1-Wire,2013-04-02 04:14:00,
2013-04-02 00:19:00,34.2,16.4,29.73,NW,326,3.6,9.7,47,0.00,n/a,n/a,-99.99,Henriksen +1-Wire,2013-04-02 04:19:00,
2013-04-02 00:24:00,34.0,16.3,29.73,NW,322,5.0,11.1,47,0.00,n/a,n/a,-99.99,Henriksen +1-Wire,2013-04-02 04:24:00,
2013-04-02 00:29:00,34.0,16.3,29.73,NW,323,4.1,11.1,48,0.00,n/a,n/a,-99.99,Henriksen +1-Wire,2013-04-02 04:29:00,
2013-04-02 02:32:00,32.0,14.8,29.75,NNW,334,3.6,7.4,48,0.00,n/a,n/a,-99.99,Henriksen +1-Wire,2013-04-02 06:32:00,
2013-04-02 02:37:00,32.1,15.1,29.75,NW,319,2.3,5.8,49,0.00,n/a,n/a,-99.99,Henriksen +1-Wire,2013-04-02 06:37:00,
2013-04-02 02:43:00,32.5,15.8,29.75,NW,319,2.9,4.7,50,0.00,n/a,n/a,-99.99,Henriksen +1-Wire,2013-04-02 06:43:00,
2013-04-02 04:47:00,30.6,16.6,29.76,NNW,336,4.0,7.2,55,0.00,n/a,n/a,-99.99,Henriksen +1-Wire,2013-04-02 08:47:00,
2013-04-02 04:53:00,30.5,16.4,29.76,NNW,334,3.8,7.9,55,0.00,n/a,n/a,-99.99,Henriksen +1-Wire,2013-04-02 08:53:00,
2013-04-02 04:59:00,30.5,16.0,29.76,NNW,336,2.8,8.7,54,0.00,n/a,n/a,-99.99,Henriksen +1-Wire,2013-04-02 08:59:00,
2013-04-02 05:04:00,30.5,15.7,29.76,NNW,335,2.3,8.7,54,0.00,n/a,n/a,-99.99,Henriksen +1-Wire,2013-04-02 09:04:00,
2013-04-02 05:09:00,30.3,15.4,29.76,NNW,336,2.8,8.0,53,0.00,n/a,n/a,-99.99,Henriksen +1-Wire,2013-04-02 09:09:00,
2013-04-02 05:15:00,30.3,15.1,29.76,NNW,335,2.3,8.0,53,0.00,n/a,n/a,-99.99,Henriksen +1-Wire,2013-04-02 09:15:00,
2013-04-02 05:20:00,30.2,14.8,29.76,NNW,336,3.2,10.3,52,0.00,n/a,n/a,-99.99,Henriksen +1-Wire,2013-04-02 09:20:00,
2013-04-02 05:26:00,30.2,14.6,29.76,NNW,335,4.2,10.3,51,0.00,n/a,n/a,-99.99,Henriksen +1-Wire,2013-04-02 09:26:00,
2013-04-02 05:31:00,30.2,14.3,29.76,NNW,329,2.7,8.7,51,0.00,n/a,n/a,-99.99,Henriksen +1-Wire,2013-04-02 09:31:00,
2013-04-02 05:37:00,30.1,14.3,29.77,NNW,336,3.2,8.0,51,0.00,n/a,n/a,-99.99,Henriksen +1-Wire,2013-04-02 09:37:00,
2013-04-02 05:42:00,30.0,14.3,29.77,NNW,332,2.0,9.5,51,0.00,n/a,n/a,-99.99,Henriksen +1-Wire,2013-04-02 09:42:00,
2013-04-02 05:48:00,30.0,14.4,29.77,NNW,336,3.2,9.5,52,0.00,n/a,n/a,-99.99,Henriksen +1-Wire,2013-04-02 09:48:00,
2013-04-02 05:53:00,30.0,14.6,29.77,NNW,334,4.4,13.4,52,0.00,n/a,n/a,-99.99,Henriksen +1-Wire,2013-04-02 09:53:00,
2013-04-02 05:58:00,30.0,14.7,29.77,NNW,336,4.6,13.4,52,0.00,n/a,n/a,-99.99,Henriksen +1-Wire,2013-04-02 09:58:00,
2013-04-02 06:04:00,30.0,14.5,29.77,NNW,335,3.1,10.1,52,0.00,n/a,n/a,-99.99,Henriksen +1-Wire,2013-04-02 10:04:00,
2013-04-02 06:09:00,30.0,14.3,29.77,NNW,336,5.5,9.4,51,0.00,n/a,n/a,-99.99,Henriksen +1-Wire,2013-04-02 10:09:00,
2013-04-02 06:14:00,30.0,14.1,29.78,NNW,335,2.3,9.4,51,0.00,n/a,n/a,-99.99,Henriksen +1-Wire,2013-04-02 10:14:00,
2013-04-02 06:19:00,30.0,14.1,29.78,NNW,336,3.8,8.0,51,0.00,n/a,n/a,-99.99,Henriksen +1-Wire,2013-04-02 10:19:00,
2013-04-02 06:24:00,30.0,14.2,29.78,NNW,335,3.3,8.7,51,0.00,n/a,n/a,-99.99,Henriksen +1-Wire,2013-04-02 10:24:00,
2013-04-02 06:30:00,30.2,14.4,29.78,NNW,336,2.9,8.7,51,0.00,n/a,n/a,-99.99,Henriksen +1-Wire,2013-04-02 10:30:00,
2013-04-02 06:35:00,30.7,15.1,29.78,NNW,335,1.7,6.5,52,0.00,n/a,n/a,-99.99,Henriksen +1-Wire,2013-04-02 10:35:00,
2013-04-02 06:40:00,31.0,15.8,29.78,NNW,336,3.1,5.9,53,0.00,n/a,n/a,-99.99,Henriksen +1-Wire,2013-04-02 10:40:00,
2013-04-02 06:46:00,30.9,16.0,29.79,NNW,336,2.6,7.2,53,0.00,n/a,n/a,-99.99,Henriksen +1-Wire,2013-04-02 10:46:00,
2013-04-02 06:51:00,30.6,16.0,29.79,WNW,300,4.3,8.1,54,0.00,n/a,n/a,-99.99,Henriksen +1-Wire,2013-04-02 10:51:00,
2013-04-02 06:56:00,30.4,16.1,29.79,NW,311,2.4,8.1,54,0.00,n/a,n/a,-99.99,Henriksen +1-Wire,2013-04-02 10:56:00,
2013-04-02 07:02:00,30.3,16.0,29.79,WNW,288,4.5,6.7,55,0.00,n/a,n/a,-99.99,Henriksen +1-Wire,2013-04-02 11:02:00,
2013-04-02 07:07:00,30.3,15.8,29.79,WNW,302,2.4,7.5,54,0.00,n/a,n/a,-99.99,Henriksen +1-Wire,2013-04-02 11:07:00,
2013-04-02 07:12:00,30.9,16.1,29.79,NW,320,4.5,9.5,53,0.00,n/a,n/a,-99.99,Henriksen +1-Wire,2013-04-02 11:12:00,
2013-04-02 07:17:00,31.5,16.2,29.79,NW,312,5.7,12.6,52,0.00,n/a,n/a,-99.99,Henriksen +1-Wire,2013-04-02 11:17:00,
2013-04-02 07:22:00,32.0,16.0,29.79,NW,309,2.0,12.6,51,0.00,n/a,n/a,-99.99,Henriksen +1-Wire,2013-04-02 11:22:00,
2013-04-02 07:27:00,32.5,16.2,29.80,WNW,296,5.8,9.5,50,0.00,n/a,n/a,-99.99,Henriksen +1-Wire,2013-04-02 11:27:00,
2013-04-02 07:32:00,32.7,16.3,29.80,NW,307,4.4,9.5,50,0.00,n/a,n/a,-99.99,Henriksen +1-Wire,2013-04-02 11:32:00,
2013-04-02 07:37:00,32.5,16.0,29.80,NW,305,4.2,8.0,50,0.00,n/a,n/a,-99.99,Henriksen +1-Wire,2013-04-02 11:37:00,
2013-04-02 07:42:00,32.2,15.6,29.80,WNW,284,3.1,8.0,50,0.00,n/a,n/a,-99.99,Henriksen +1-Wire,2013-04-02 11:42:00,
2013-04-02 09:43:00,35.4,14.9,29.80,NW,324,4.7,9.5,42,0.00,n/a,n/a,-99.99,Henriksen +1-Wire,2013-04-02 13:43:00,
2013-04-02 09:48:00,35.2,14.6,29.81,NNW,329,5.2,9.6,42,0.00,n/a,n/a,-99.99,Henriksen +1-Wire,2013-04-02 13:48:00,
2013-04-02 09:54:00,35.1,14.4,29.81,NW,318,3.6,11.1,42,0.00,n/a,n/a,-99.99,Henriksen +1-Wire,2013-04-02 13:54:00,
2013-04-02 09:59:00,35.3,14.5,29.80,NW,318,4.7,9.5,42,0.00,n/a,n/a,-99.99,Henriksen +1-Wire,2013-04-02 13:59:00,
2013-04-02 12:02:00,38.0,13.7,29.79,NW,306,4.8,13.4,36,0.00,n/a,n/a,-99.99,Henriksen +1-Wire,2013-04-02 16:02:00,
2013-04-02 12:07:00,37.9,13.4,29.78,NW,317,3.6,13.7,36,0.00,n/a,n/a,-99.99,Henriksen +1-Wire,2013-04-02 16:07:00,
2013-04-02 12:12:00,37.9,13.4,29.78,NW,310,5.8,13.7,36,0.00,n/a,n/a,-99.99,Henriksen +1-Wire,2013-04-02 16:12:00,
2013-04-02 12:17:00,37.8,13.2,29.78,NW,324,5.1,10.3,36,0.00,n/a,n/a,-99.99,Henriksen +1-Wire,2013-04-02 16:17:00,
2013-04-02 14:22:00,38.6,15.3,29.76,NW,306,5.9,13.5,38,0.00,n/a,n/a,-99.99,Henriksen +1-Wire,2013-04-02 18:22:00,
2013-04-02 14:27:00,38.5,15.3,29.75,NW,308,6.1,13.5,38,0.00,n/a,n/a,-99.99,Henriksen +1-Wire,2013-04-02 18:27:00,
2013-04-02 14:33:00,38.3,15.4,29.75,NW,321,7.8,15.4,38,0.00,n/a,n/a,-99.99,Henriksen +1-Wire,2013-04-02 18:33:00,
2013-04-02 14:38:00,38.5,16.1,29.75,NW,314,6.2,15.4,39,0.00,n/a,n/a,-99.99,Henriksen +1-Wire,2013-04-02 18:38:00,
2013-04-02 14:44:00,37.9,16.4,29.76,NNW,332,7.9,15.0,41,0.00,n/a,n/a,-99.99,Henriksen +1-Wire,2013-04-02 18:44:00,
2013-04-02 16:47:00,38.6,15.7,29.75,WNW,301,5.0,12.0,39,0.00,n/a,n/a,-99.99,Henriksen +1-Wire,2013-04-02 20:47:00,
2013-04-02 18:52:00,35.5,15.9,29.79,West,278,3.9,15.9,44,0.00,n/a,n/a,-99.99,Henriksen +1-Wire,2013-04-02 22:52:00,
2013-04-02 18:57:00,35.4,16.1,29.79,WNW,298,5.2,15.7,44,0.00,n/a,n/a,-99.99,Henriksen +1-Wire,2013-04-02 22:57:00,
2013-04-02 19:03:00,35.3,16.2,29.80,WNW,297,5.7,16.3,45,0.00,n/a,n/a,-99.99,Henriksen +1-Wire,2013-04-02 23:03:00,
2013-04-02 19:08:00,35.1,16.0,29.80,NW,305,5.9,16.3,45,0.00,n/a,n/a,-99.99,Henriksen +1-Wire,2013-04-02 23:08:00,
2013-04-02 21:12:00,32.5,17.2,29.85,WNW,295,3.3,7.5,52,0.00,n/a,n/a,-99.99,Henriksen +1-Wire,2013-04-03 01:12:00,
2013-04-02 21:17:00,32.5,17.4,29.85,WNW,296,2.8,10.2,53,0.00,n/a,n/a,-99.99,Henriksen +1-Wire,2013-04-03 01:17:00,
2013-04-02 23:20:00,32.0,16.5,29.85,WNW,286,3.2,6.6,52,0.00,n/a,n/a,-99.99,Henriksen +1-Wire,2013-04-03 03:20:00,
2013-04-02 23:26:00,31.9,16.4,29.85,West,279,2.1,7.2,52,0.00,n/a,n/a,-99.99,Henriksen +1-Wire,2013-04-03 03:26:00,
2013-04-02 23:32:00,31.8,16.4,29.85,West,278,2.3,7.2,52,0.00,n/a,n/a,-99.99,Henriksen +1-Wire,2013-04-03 03:32:00,